Arcadia, Illinois
Current Conditions -  °F | °C
As of 10:35 AM on Tuesday 27 Jan 2015 (Local Time) from KIJX Reporting Station
Scattered Clouds Scattered Clouds  
Wind Chill: 33°   Ceiling: Unl
Heat Index: 40°   Visibility: 10mi
Dew Point: 33°   Wind: 12mph
Humidity: 76%   Direction: 360°N
Pressure: 30.16"   Gusts: NA
Location:  39.7413°N, 90.2138°W
Report Text: KIJX 271635Z AUTO 36010KT 10SM SCT017 04/00 A3016 RMK AO2 T00430004
Loading
Personal Weather Stations






























Interactive Weather Map New forecast layout! Learn more

10-Day Weather Forecast

Advertisements
Track Severe Weather on mobile